createdAt,value
2023-04-01T00:04:59.891Z,101551.78
2023-04-01T00:10:03.430Z,101543.50
2023-04-01T00:15:09.584Z,101543.53
2023-04-01T00:20:13.188Z,101535.31
2023-04-01T00:25:15.862Z,101534.97
2023-04-01T00:30:19.259Z,101564.25
2023-04-01T00:35:22.533Z,101563.56
2023-04-01T00:40:38.376Z,101574.59
2023-04-01T00:45:44.016Z,101583.94
2023-04-01T00:50:52.122Z,101582.94
2023-04-01T00:56:11.546Z,101602.00
2023-04-01T01:01:14.419Z,101596.03
2023-04-01T01:06:41.107Z,101595.75
2023-04-01T01:11:56.729Z,101595.88
2023-04-01T01:17:23.480Z,101590.81
2023-04-01T01:22:54.410Z,101593.50
2023-04-01T01:28:30.576Z,101592.00
2023-04-01T01:33:34.420Z,101599.88
2023-04-01T01:38:39.548Z,101576.50
2023-04-01T01:43:45.913Z,101594.91
2023-04-01T01:48:53.384Z,101579.31
2023-04-01T01:53:56.495Z,101578.00
2023-04-01T01:59:07.968Z,101594.28
2023-04-01T02:04:13.049Z,101579.63
2023-04-01T02:09:15.486Z,101583.56
2023-04-01T02:14:27.949Z,101613.84
2023-04-01T02:19:42.889Z,101611.84
2023-04-01T02:24:47.484Z,101627.47
2023-04-01T02:29:51.548Z,101600.16
2023-04-01T02:34:54.187Z,101616.75
2023-04-01T02:40:01.979Z,101629.41
2023-04-01T02:45:06.682Z,101630.28
2023-04-01T02:50:10.932Z,101633.25
2023-04-01T02:55:14.097Z,101625.69
2023-04-01T03:00:18.754Z,101608.28
2023-04-01T03:05:21.719Z,101623.25
2023-04-01T03:10:24.757Z,101587.22
2023-04-01T03:15:28.153Z,101624.75
2023-04-01T03:20:30.871Z,101611.28
2023-04-01T03:25:33.430Z,101617.53
2023-04-01T03:30:36.668Z,101620.34
2023-04-01T03:35:39.336Z,101634.31
2023-04-01T03:40:44.362Z,101636.44
2023-04-01T03:45:52.418Z,101657.03
2023-04-01T03:50:54.915Z,101662.00
2023-04-01T03:55:58.897Z,101654.75
2023-04-01T04:01:02.200Z,101654.91
2023-04-01T04:06:06.064Z,101656.38
2023-04-01T04:11:09.678Z,101665.03
2023-04-01T04:16:16.341Z,101659.25
2023-04-01T04:21:23.654Z,101660.69
2023-04-01T04:26:26.888Z,101661.88
2023-04-01T04:31:35.118Z,101672.78
2023-04-01T04:36:37.628Z,101676.72
2023-04-01T04:41:43.179Z,101647.34
2023-04-01T04:46:46.690Z,101663.72
2023-04-01T04:51:51.612Z,101662.16
2023-04-01T04:56:56.423Z,101658.25
2023-04-01T05:02:01.744Z,101656.53
2023-04-01T05:07:05.241Z,101662.16
2023-04-01T05:12:09.853Z,101653.66
2023-04-01T05:17:32.800Z,101652.41
2023-04-01T05:22:37.808Z,101652.44
2023-04-01T05:27:41.220Z,101657.28
2023-04-01T05:32:45.555Z,101669.72
2023-04-01T05:37:47.938Z,101673.38
2023-04-01T05:42:51.395Z,101675.78
2023-04-01T05:47:54.291Z,101684.78
2023-04-01T05:52:57.086Z,101667.75
2023-04-01T05:58:00.503Z,101683.50
2023-04-01T06:03:04.521Z,101672.16
2023-04-01T06:08:18.381Z,101670.56
2023-04-01T06:13:34.891Z,101684.34
2023-04-01T06:18:37.441Z,101669.94
2023-04-01T06:23:49.763Z,101658.47
2023-04-01T06:29:17.112Z,101688.72
2023-04-01T06:34:39.735Z,101693.53
2023-04-01T06:40:07.734Z,101659.47
2023-04-01T06:45:38.653Z,101665.47
2023-04-01T06:51:21.936Z,101646.19
2023-04-01T06:56:48.262Z,101646.00
2023-04-01T07:02:06.401Z,101646.81
2023-04-01T07:07:39.479Z,101622.97
2023-04-01T07:13:36.236Z,101628.84
2023-04-01T07:18:56.301Z,101617.16
2023-04-01T07:24:07.897Z,101628.66
2023-04-01T07:29:20.084Z,101630.88
2023-04-01T07:34:40.648Z,101628.22
2023-04-01T07:40:06.491Z,101628.16
2023-04-01T07:45:49.262Z,101632.91
2023-04-01T07:51:03.945Z,101636.84
2023-04-01T07:56:13.544Z,101619.53
2023-04-01T08:01:36.401Z,101622.63
2023-04-01T08:07:00.856Z,101616.66
2023-04-01T08:12:25.395Z,101604.03
2023-04-01T08:17:47.002Z,101611.06
2023-04-01T08:23:32.493Z,101621.41
2023-04-01T08:28:56.044Z,101589.44
2023-04-01T08:34:05.982Z,101611.16
2023-04-01T08:39:14.727Z,101634.44
2023-04-01T08:44:32.794Z,101627.44
2023-04-01T08:49:39.098Z,101636.66
2023-04-01T08:54:46.994Z,101637.56
2023-04-01T09:00:15.970Z,101647.13
2023-04-01T09:06:08.347Z,101662.09
2023-04-01T09:11:24.481Z,101670.53
2023-04-01T09:17:15.102Z,101669.63
2023-04-01T09:22:37.802Z,101625.94
2023-04-01T09:28:03.511Z,101668.38
2023-04-01T09:33:40.301Z,101644.41
2023-04-01T09:38:49.306Z,101652.31
2023-04-01T09:43:58.036Z,101645.25
2023-04-01T09:49:35.212Z,101640.63
2023-04-01T09:54:54.753Z,101647.03
2023-04-01T10:00:35.416Z,101626.41
2023-04-01T10:05:59.749Z,101632.53
2023-04-01T10:11:52.659Z,101626.13
2023-04-01T10:17:20.934Z,101631.13
2023-04-01T10:22:36.591Z,101612.41
2023-04-01T10:27:46.168Z,101611.59
2023-04-01T10:34:00.749Z,101612.25
2023-04-01T10:39:29.325Z,101598.22
2023-04-01T10:44:58.809Z,101600.09
2023-04-01T10:50:16.214Z,101586.09
2023-04-01T10:55:38.700Z,101576.38
2023-04-01T11:01:25.005Z,101573.50
2023-04-01T11:07:04.533Z,101577.41
2023-04-01T11:12:07.021Z,101568.63
2023-04-01T11:17:16.832Z,101575.56
2023-04-01T11:22:35.813Z,101569.91
2023-04-01T11:27:48.223Z,101566.91
2023-04-01T11:33:14.825Z,101565.25
2023-04-01T11:39:00.514Z,101564.00
2023-04-01T11:44:31.762Z,101562.94
2023-04-01T11:50:21.245Z,101558.63
2023-04-01T11:55:52.136Z,101551.56
2023-04-01T12:01:13.747Z,101544.72
2023-04-01T12:06:37.119Z,101533.66
2023-04-01T12:11:47.105Z,101526.69
2023-04-01T12:17:03.980Z,101510.28
2023-04-01T12:22:36.533Z,101515.66
2023-04-01T12:27:52.114Z,101506.31
2023-04-01T12:32:55.328Z,101511.25
2023-04-01T12:38:21.182Z,101501.50
2023-04-01T12:43:48.477Z,101495.91
2023-04-01T12:49:32.991Z,101476.78
2023-04-01T12:54:42.466Z,101489.84
2023-04-01T13:00:04.271Z,101490.00
2023-04-01T13:05:35.319Z,101498.84
2023-04-01T13:11:05.207Z,101499.34
2023-04-01T13:16:25.198Z,101482.03
2023-04-01T13:21:33.544Z,101496.25
2023-04-01T13:27:02.001Z,101498.13
2023-04-01T13:32:33.378Z,101505.69
2023-04-01T13:37:59.956Z,101492.22
2023-04-01T13:43:16.692Z,101499.06
2023-04-01T13:48:37.579Z,101498.28
2023-04-01T13:53:55.690Z,101499.22
2023-04-01T13:59:27.790Z,101498.03
2023-04-01T14:04:49.031Z,101499.66
2023-04-01T14:10:07.471Z,101503.00
2023-04-01T14:15:37.388Z,101510.75
2023-04-01T14:20:49.643Z,101518.75
2023-04-01T14:26:05.222Z,101508.63
2023-04-01T14:31:32.299Z,101516.88
2023-04-01T14:37:14.165Z,101519.63
2023-04-01T14:42:28.665Z,101522.03
2023-04-01T14:47:58.297Z,101524.22
2023-04-01T14:53:13.027Z,101506.66
2023-04-01T14:58:18.331Z,101533.53
2023-04-01T15:03:46.918Z,101525.22
2023-04-01T15:09:01.417Z,101550.13
2023-04-01T15:14:17.726Z,101555.00
2023-04-01T15:19:30.480Z,101521.19
2023-04-01T15:24:49.820Z,101560.88
2023-04-01T15:30:19.143Z,101562.63
2023-04-01T15:35:47.706Z,101566.53
2023-04-01T15:41:07.508Z,101572.66
2023-04-01T15:46:47.998Z,101581.31
2023-04-01T15:51:54.471Z,101579.50
2023-04-01T15:57:34.781Z,101582.06
2023-04-01T16:03:14.748Z,101588.47
2023-04-01T16:08:24.332Z,101594.41
2023-04-01T16:13:55.805Z,101595.66
2023-04-01T16:19:32.924Z,101591.41
2023-04-01T16:24:40.916Z,101602.66
2023-04-01T16:30:24.887Z,101601.25
2023-04-01T16:35:45.223Z,101594.75
2023-04-01T16:40:59.919Z,101607.25
2023-04-01T16:46:28.596Z,101596.59
2023-04-01T16:51:45.582Z,101581.69
2023-04-01T16:57:03.407Z,101575.56
2023-04-01T17:02:12.093Z,101609.91
2023-04-01T17:07:25.603Z,101617.25
2023-04-01T17:12:52.948Z,101610.91
2023-04-01T17:18:24.941Z,101600.69
2023-04-01T17:23:59.850Z,101591.50
2023-04-01T17:29:33.231Z,101596.59
2023-04-01T17:35:15.765Z,101580.66
2023-04-01T17:40:37.043Z,101597.00
2023-04-01T17:45:56.867Z,101593.72
2023-04-01T17:51:18.900Z,101587.38
2023-04-01T17:56:48.361Z,101577.16
2023-04-01T18:02:06.088Z,101578.56
2023-04-01T18:07:34.597Z,101581.47
2023-04-01T18:12:46.531Z,101574.28
2023-04-01T18:18:01.729Z,101568.59
2023-04-01T18:23:29.488Z,101569.19
2023-04-01T18:28:32.320Z,101570.59
2023-04-01T18:33:49.042Z,101557.72
2023-04-01T18:39:31.753Z,101545.50
2023-04-01T18:45:03.338Z,101541.19
2023-04-01T18:50:32.027Z,101556.91
2023-04-01T18:55:44.359Z,101545.28
2023-04-01T19:01:11.907Z,101560.63
2023-04-01T19:06:21.615Z,101525.28
2023-04-01T19:11:51.029Z,101527.94
2023-04-01T19:17:12.327Z,101536.53
2023-04-01T19:22:52.924Z,101529.56
2023-04-01T19:28:18.774Z,101548.16
2023-04-01T19:33:53.430Z,101536.53
2023-04-01T19:39:17.525Z,101537.97
2023-04-01T19:44:57.397Z,101533.69
2023-04-01T19:50:02.718Z,101546.56
2023-04-01T19:55:14.477Z,101543.50
2023-04-01T20:00:31.447Z,101530.19
2023-04-01T20:05:47.597Z,101520.59
2023-04-01T20:11:08.318Z,101526.72
2023-04-01T20:16:13.005Z,101512.00
2023-04-01T20:21:15.562Z,101522.84
2023-04-01T20:26:26.592Z,101526.91
2023-04-01T20:31:38.206Z,101497.88
2023-04-01T20:37:03.361Z,101520.78
2023-04-01T20:42:34.644Z,101528.72
2023-04-01T20:47:58.484Z,101503.38
2023-04-01T20:53:17.383Z,101519.50
2023-04-01T20:58:46.355Z,101528.09
2023-04-01T21:04:20.226Z,101528.25
2023-04-01T21:09:44.773Z,101522.28
2023-04-01T21:15:12.449Z,101516.41
2023-04-01T21:20:50.385Z,101503.09
2023-04-01T21:26:03.935Z,101503.09
2023-04-01T21:31:33.472Z,101501.28
2023-04-01T21:37:03.846Z,101503.91
2023-04-01T21:42:25.546Z,101500.41
2023-04-01T21:47:31.061Z,101502.06
2023-04-01T21:53:04.404Z,101496.56
2023-04-01T21:58:10.197Z,101496.72
2023-04-01T22:03:27.482Z,101495.50
2023-04-01T22:08:43.579Z,101487.69
2023-04-01T22:13:52.421Z,101485.03
2023-04-01T22:19:00.354Z,101484.59
2023-04-01T22:24:11.403Z,101476.63
2023-04-01T22:29:37.282Z,101469.69
2023-04-01T22:35:11.093Z,101467.22
2023-04-01T22:40:35.747Z,101445.13
2023-04-01T22:46:07.406Z,101460.31
2023-04-01T22:51:24.228Z,101452.94
2023-04-01T22:56:41.138Z,101443.72
2023-04-01T23:01:58.808Z,101439.84
2023-04-01T23:07:07.361Z,101448.06
2023-04-01T23:12:15.905Z,101438.72
2023-04-01T23:17:51.544Z,101438.69
2023-04-01T23:23:16.604Z,101441.72
2023-04-01T23:28:45.340Z,101432.03
2023-04-01T23:33:58.439Z,101408.94
2023-04-01T23:44:28.534Z,101436.78
2023-04-01T23:49:44.341Z,101433.88
2023-04-01T23:54:55.213Z,101396.91
